Splendour Of The Seas — C6TZ9 — position and weather

sailwx.info

Track history (hours):
 
Tides and Currents Weather Stations Pressure Air Temp Water Temp Dewpoint Dewpoint Depression Visibility Wind Speed Wind Dir Waves Ship Positions

Splendour Of The Seas

Last reported at 2015-May-27 15:31 UTC. Time now 2015-May-27 15:57 UTC.
Position N 36°22' E 024°56'.

Type: Passenger vessel. MMSI: 311804000.

Date/timePositionNaut miles runAvg speedWind from/ knotsBaromVisibWave heightAir tempDewpointWater temp
2015-May-27 15:31N 36°22' E 024°56'1515.1
2015-May-27 14:33N 36°23' E 025°14'10 9.6
2015-May-27 13:33N 36°25' E 025°25'0 0.0
2015-May-27 12:33N 36°25' E 025°25'0 0.0
2015-May-27 11:32N 36°25' E 025°25'0 0.0
2015-May-27 10:33N 36°25' E 025°25'0 0.1
2015-May-27 09:32N 36°25' E 025°25'0 0.1
2015-May-27 08:34N 36°25' E 025°25'0 0.0
2015-May-27 07:32N 36°25' E 025°25'0 0.0
2015-May-27 06:31N 36°25' E 025°25'0 0.1
2015-May-27 05:33N 36°25' E 025°25'0 0.1
2015-May-27 04:32N 36°25' E 025°25'6 5.6
2015-May-27 03:32N 36°30' E 025°22'1111.2
2015-May-27 02:33N 36°38' E 025°30'1110.9
2015-May-27 01:33N 36°46' E 025°39'1111.2
2015-May-27 00:33N 36°55' E 025°48'1111.2
2015-May-26 23:33N 37°03' E 025°57'1311.1
2015-May-26 22:24N 37°14' E 026°07'1111.1
2015-May-26 21:27N 37°23' E 026°13'19 1.0
2015-May-26 02:04N 37°35' E 025°55'1019.3
2015-May-26 01:33N 37°29' E 025°45'1918.9
2015-May-26 00:33N 37°20' E 025°24'1919.1
2015-May-25 23:33N 37°14' E 025°01'9621.1
2015-May-25 19:00N 36°24' E 023°18'19416.2 270 / 91010.0 19.017.518.0
2015-May-25 07:00N 38°18' E 020°00'2020.3 270 / 131012.0 19.017.525.0
2015-May-25 06:00N 38°36' E 019°48'3021.0 270 / 71012.0 19.017.525.0
2015-May-25 04:33N 39°05' E 019°38'2619.1
2015-May-25 03:10N 39°30' E 019°25'1218.9
2015-May-25 02:33N 39°40' E 019°19'15218.9
2015-May-24 18:30N 42°05' E 018°16'1819.0
2015-May-24 17:33N 42°22' E 018°09'205 4.4
2015-May-22 19:00N 44°06' E 014°06'1514.8 130 / 91008.0 16.016.018.0
2015-May-22 18:00N 43°54' E 014°18'14513.2 080 / 161008.0 16.016.018.0
2015-May-22 07:00N 42°06' E 016°30'1515.0 240 / 131010.0 18.016.419.0
2015-May-22 06:00N 41°54' E 016°42'12913.7 260 / 151010.0 18.016.419.0
2015-May-21 20:33N 40°28' E 018°50'1413.4
2015-May-21 19:32N 40°19' E 019°03'1313.4
2015-May-21 18:33N 40°12' E 019°17'1313.3
2015-May-21 17:33N 40°04' E 019°31'1313.4
2015-May-21 16:33N 39°56' E 019°46'1313.0
2015-May-21 15:33N 39°48' E 019°59'1110.5
2015-May-21 14:33N 39°38' E 019°54'0 0.0
2015-May-21 13:33N 39°38' E 019°54'0 0.0
2015-May-21 12:33N 39°38' E 019°54'0 0.0
2015-May-21 11:33N 39°38' E 019°54'0 0.0
2015-May-21 10:33N 39°38' E 019°54'0 0.0
2015-May-21 09:33N 39°38' E 019°54'0 0.0
2015-May-21 08:33N 39°38' E 019°54'0 0.0
2015-May-21 07:33N 39°38' E 019°54'0 0.0
2015-May-21 06:28N 39°38' E 019°54'0 0.0
2015-May-21 05:28N 39°38' E 019°54'1 1.0
2015-May-21 04:34N 39°39' E 019°54'1312.9
2015-May-21 03:34N 39°52' E 019°54'1515.5
2015-May-21 02:33N 40°02' E 019°39'2115.5
2015-May-21 01:13N 40°15' E 019°18'1015.7
2015-May-21 00:33N 40°21' E 019°07'7115.6
2015-May-20 20:00N 41°30' E 018°42'3614.8 140 / 121012.0 20.020.020.0
2015-May-20 17:33N 42°06' E 018°37'1515.4
2015-May-20 16:33N 42°21' E 018°33'9 7.6
2015-May-20 15:20N 42°28' E 018°41'4 5.3
2015-May-20 14:32N 42°26' E 018°46'0 0.1
2015-May-20 13:32N 42°26' E 018°46'0 0.0
2015-May-20 12:32N 42°26' E 018°46'0 0.1
2015-May-20 11:32N 42°26' E 018°46'0 0.0
2015-May-20 10:32N 42°26' E 018°46'0 0.0
2015-May-20 09:32N 42°26' E 018°46'0 0.0
2015-May-20 08:32N 42°26' E 018°46'0 0.1
2015-May-20 07:32N 42°26' E 018°46'0 0.0
2015-May-20 06:32N 42°26' E 018°46'0 0.0
2015-May-20 05:32N 42°26' E 018°46'2 1.7
2015-May-20 04:33N 42°28' E 018°45'7 7.3
2015-May-20 03:34N 42°26' E 018°36'7511.4
2015-May-19 21:00N 42°24' E 016°54'1514.9 130 / 131011.0 20.020.019.0
2015-May-19 20:00N 42°36' E 016°42'162 3.5 110 / 131011.0 20.020.019.0
2015-May-17 21:00N 44°18' E 013°48'3210.8 030 / 91015.0 20.020.019.0
2015-May-17 18:00N 43°54' E 014°18'   330 / 101015.0 20.020.019.0
Track history (hours):
 
Tides and Currents Weather Stations Pressure Air Temp Water Temp Dewpoint Dewpoint Depression Visibility Wind Speed Wind Dir Waves Ship Positions

Splendour Of The Seas

Last reported at 2015-May-27 15:31 UTC. Time now 2015-May-27 15:57 UTC.
Position N 36°22' E 024°56'.

Type: Passenger vessel. MMSI: 311804000.

Date/timePositionNaut miles runAvg speedWind from/ knotsBaromVisibWave heightAir tempDewpointWater temp
2015-May-27 15:31N 36°22' E 024°56'1515.1
2015-May-27 14:33N 36°23' E 025°14'10 9.6
2015-May-27 13:33N 36°25' E 025°25'0 0.0
2015-May-27 12:33N 36°25' E 025°25'0 0.0
2015-May-27 11:32N 36°25' E 025°25'0 0.0
2015-May-27 10:33N 36°25' E 025°25'0 0.1
2015-May-27 09:32N 36°25' E 025°25'0 0.1
2015-May-27 08:34N 36°25' E 025°25'0 0.0
2015-May-27 07:32N 36°25' E 025°25'0 0.0
2015-May-27 06:31N 36°25' E 025°25'0 0.1
2015-May-27 05:33N 36°25' E 025°25'0 0.1
2015-May-27 04:32N 36°25' E 025°25'6 5.6
2015-May-27 03:32N 36°30' E 025°22'1111.2
2015-May-27 02:33N 36°38' E 025°30'1110.9
2015-May-27 01:33N 36°46' E 025°39'1111.2
2015-May-27 00:33N 36°55' E 025°48'1111.2
2015-May-26 23:33N 37°03' E 025°57'1311.1
2015-May-26 22:24N 37°14' E 026°07'1111.1
2015-May-26 21:27N 37°23' E 026°13'19 1.0
2015-May-26 02:04N 37°35' E 025°55'1019.3
2015-May-26 01:33N 37°29' E 025°45'1918.9
2015-May-26 00:33N 37°20' E 025°24'1919.1
2015-May-25 23:33N 37°14' E 025°01'9621.1
2015-May-25 19:00N 36°24' E 023°18'19416.2 270 / 91010.0 19.017.518.0
2015-May-25 07:00N 38°18' E 020°00'2020.3 270 / 131012.0 19.017.525.0
2015-May-25 06:00N 38°36' E 019°48'3021.0 270 / 71012.0 19.017.525.0
2015-May-25 04:33N 39°05' E 019°38'2619.1
2015-May-25 03:10N 39°30' E 019°25'1218.9
2015-May-25 02:33N 39°40' E 019°19'15218.9
2015-May-24 18:30N 42°05' E 018°16'1819.0
2015-May-24 17:33N 42°22' E 018°09'205 4.4
2015-May-22 19:00N 44°06' E 014°06'1514.8 130 / 91008.0 16.016.018.0
2015-May-22 18:00N 43°54' E 014°18'14513.2 080 / 161008.0 16.016.018.0
2015-May-22 07:00N 42°06' E 016°30'1515.0 240 / 131010.0 18.016.419.0
2015-May-22 06:00N 41°54' E 016°42'12913.7 260 / 151010.0 18.016.419.0
2015-May-21 20:33N 40°28' E 018°50'1413.4
2015-May-21 19:32N 40°19' E 019°03'1313.4
2015-May-21 18:33N 40°12' E 019°17'1313.3
2015-May-21 17:33N 40°04' E 019°31'1313.4
2015-May-21 16:33N 39°56' E 019°46'1313.0
2015-May-21 15:33N 39°48' E 019°59'1110.5
2015-May-21 14:33N 39°38' E 019°54'0 0.0
2015-May-21 13:33N 39°38' E 019°54'0 0.0
2015-May-21 12:33N 39°38' E 019°54'0 0.0
2015-May-21 11:33N 39°38' E 019°54'0 0.0
2015-May-21 10:33N 39°38' E 019°54'0 0.0
2015-May-21 09:33N 39°38' E 019°54'0 0.0
2015-May-21 08:33N 39°38' E 019°54'0 0.0
2015-May-21 07:33N 39°38' E 019°54'0 0.0
2015-May-21 06:28N 39°38' E 019°54'0 0.0
2015-May-21 05:28N 39°38' E 019°54'1 1.0
2015-May-21 04:34N 39°39' E 019°54'1312.9
2015-May-21 03:34N 39°52' E 019°54'1515.5
2015-May-21 02:33N 40°02' E 019°39'2115.5
2015-May-21 01:13N 40°15' E 019°18'1015.7
2015-May-21 00:33N 40°21' E 019°07'7115.6
2015-May-20 20:00N 41°30' E 018°42'3614.8 140 / 121012.0 20.020.020.0
2015-May-20 17:33N 42°06' E 018°37'1515.4
2015-May-20 16:33N 42°21' E 018°33'9 7.6
2015-May-20 15:20N 42°28' E 018°41'4 5.3
2015-May-20 14:32N 42°26' E 018°46'0 0.1
2015-May-20 13:32N 42°26' E 018°46'0 0.0
2015-May-20 12:32N 42°26' E 018°46'0 0.1
2015-May-20 11:32N 42°26' E 018°46'0 0.0
2015-May-20 10:32N 42°26' E 018°46'0 0.0
2015-May-20 09:32N 42°26' E 018°46'0 0.0
2015-May-20 08:32N 42°26' E 018°46'0 0.1
2015-May-20 07:32N 42°26' E 018°46'0 0.0
2015-May-20 06:32N 42°26' E 018°46'0 0.0
2015-May-20 05:32N 42°26' E 018°46'2 1.7
2015-May-20 04:33N 42°28' E 018°45'7 7.3
2015-May-20 03:34N 42°26' E 018°36'7511.4
2015-May-19 21:00N 42°24' E 016°54'1514.9 130 / 131011.0 20.020.019.0
2015-May-19 20:00N 42°36' E 016°42'162 3.5 110 / 131011.0 20.020.019.0
2015-May-17 21:00N 44°18' E 013°48'3210.8 030 / 91015.0 20.020.019.0
2015-May-17 18:00N 43°54' E 014°18'   330 / 101015.0 20.020.019.0

Dump ship's entire track history